sensor_id;sensor_type;location;lat;lon;timestamp;pressure;altitude;pressure_sealevel;temperature;humidity
23363;BME280;11853;48.080;11.960;2023-09-08T00:01:39;95122.91;;;19.07;87.07
23363;BME280;11853;48.080;11.960;2023-09-08T00:04:05;95122.50;;;19.10;87.15
23363;BME280;11853;48.080;11.960;2023-09-08T00:06:31;95123.72;;;19.07;86.81
23363;BME280;11853;48.080;11.960;2023-09-08T00:08:57;95122.06;;;19.06;86.51
23363;BME280;11853;48.080;11.960;2023-09-08T00:11:23;95123.72;;;19.07;86.58
23363;BME280;11853;48.080;11.960;2023-09-08T00:13:49;95122.06;;;19.06;86.55
23363;BME280;11853;48.080;11.960;2023-09-08T00:16:16;95120.38;;;19.05;86.33
23363;BME280;11853;48.080;11.960;2023-09-08T00:18:41;95121.63;;;19.03;86.49
23363;BME280;11853;48.080;11.960;2023-09-08T00:21:10;95127.41;;;19.00;86.40
23363;BME280;11853;48.080;11.960;2023-09-08T00:23:37;95123.03;;;18.92;86.83
23363;BME280;11853;48.080;11.960;2023-09-08T00:26:03;95118.66;;;18.91;87.25
23363;BME280;11853;48.080;11.960;2023-09-08T00:28:32;95124.03;;;18.91;86.92
23363;BME280;11853;48.080;11.960;2023-09-08T00:30:58;95118.88;;;18.89;86.81
23363;BME280;11853;48.080;11.960;2023-09-08T00:33:25;95116.38;;;18.88;87.44
23363;BME280;11853;48.080;11.960;2023-09-08T00:35:51;95110.97;;;18.88;87.04
23363;BME280;11853;48.080;11.960;2023-09-08T00:38:19;95117.19;;;18.88;87.01
23363;BME280;11853;48.080;11.960;2023-09-08T00:40:45;95118.22;;;18.87;87.23
23363;BME280;11853;48.080;11.960;2023-09-08T00:43:11;95123.16;;;18.84;87.34
23363;BME280;11853;48.080;11.960;2023-09-08T00:45:41;95115.28;;;18.82;87.30
23363;BME280;11853;48.080;11.960;2023-09-08T00:48:09;95110.78;;;18.83;87.55
23363;BME280;11853;48.080;11.960;2023-09-08T00:50:36;95107.44;;;18.81;87.69
23363;BME280;11853;48.080;11.960;2023-09-08T00:53:03;95120.88;;;18.81;87.99
23363;BME280;11853;48.080;11.960;2023-09-08T00:55:29;95115.69;;;18.79;88.03
23363;BME280;11853;48.080;11.960;2023-09-08T00:57:56;95117.75;;;18.77;87.83
23363;BME280;11853;48.080;11.960;2023-09-08T01:00:22;95113.41;;;18.76;88.20
23363;BME280;11853;48.080;11.960;2023-09-08T01:02:48;95112.75;;;18.74;87.80
23363;BME280;11853;48.080;11.960;2023-09-08T01:05:13;95115.19;;;18.69;88.17
23363;BME280;11853;48.080;11.960;2023-09-08T01:07:40;95113.31;;;18.69;88.65
23363;BME280;11853;48.080;11.960;2023-09-08T01:10:06;95116.41;;;18.66;89.04
23363;BME280;11853;48.080;11.960;2023-09-08T01:12:33;95111.59;;;18.62;89.59
23363;BME280;11853;48.080;11.960;2023-09-08T01:15:01;95115.34;;;18.61;89.50
23363;BME280;11853;48.080;11.960;2023-09-08T01:17:27;95118.22;;;18.59;89.39
23363;BME280;11853;48.080;11.960;2023-09-08T01:19:55;95110.53;;;18.56;88.99
23363;BME280;11853;48.080;11.960;2023-09-08T01:27:46;95114.22;;;18.49;90.16
23363;BME280;11853;48.080;11.960;2023-09-08T01:30:13;95109.41;;;18.44;90.35
23363;BME280;11853;48.080;11.960;2023-09-08T01:32:40;95113.13;;;18.43;90.90
23363;BME280;11853;48.080;11.960;2023-09-08T01:35:09;95112.69;;;18.39;90.83
23363;BME280;11853;48.080;11.960;2023-09-08T01:37:38;95113.28;;;18.35;90.85
23363;BME280;11853;48.080;11.960;2023-09-08T01:40:05;95108.69;;;18.29;91.54
23363;BME280;11853;48.080;11.960;2023-09-08T01:42:31;95108.44;;;18.23;91.72
23363;BME280;11853;48.080;11.960;2023-09-08T01:44:57;95103.63;;;18.19;91.65
23363;BME280;11853;48.080;11.960;2023-09-08T01:47:22;95103.56;;;18.12;92.28
23363;BME280;11853;48.080;11.960;2023-09-08T01:49:48;95103.53;;;18.06;92.84
23363;BME280;11853;48.080;11.960;2023-09-08T01:52:14;95108.03;;;18.05;92.57
23363;BME280;11853;48.080;11.960;2023-09-08T01:54:40;95113.03;;;18.08;92.25
23363;BME280;11853;48.080;11.960;2023-09-08T01:57:06;95110.34;;;18.08;91.80
23363;BME280;11853;48.080;11.960;2023-09-08T01:59:32;95106.66;;;18.09;91.90
23363;BME280;11853;48.080;11.960;2023-09-08T02:01:58;95114.28;;;18.06;92.26
23363;BME280;11853;48.080;11.960;2023-09-08T02:04:27;95105.34;;;18.05;92.60
23363;BME280;11853;48.080;11.960;2023-09-08T02:06:52;95104.75;;;18.03;92.62
23363;BME280;11853;48.080;11.960;2023-09-08T02:09:18;95099.28;;;17.96;93.16
23363;BME280;11853;48.080;11.960;2023-09-08T02:11:44;95094.94;;;17.95;93.47
23363;BME280;11853;48.080;11.960;2023-09-08T02:14:10;95090.63;;;17.94;93.25
23363;BME280;11853;48.080;11.960;2023-09-08T02:16:36;95100.50;;;17.94;93.31
23363;BME280;11853;48.080;11.960;2023-09-08T02:19:02;95090.16;;;17.91;93.51
23363;BME280;11853;48.080;11.960;2023-09-08T02:21:27;95093.88;;;17.90;93.34
23363;BME280;11853;48.080;11.960;2023-09-08T02:23:53;95092.59;;;17.86;93.18
23363;BME280;11853;48.080;11.960;2023-09-08T02:26:19;95088.88;;;17.87;93.13
23363;BME280;11853;48.080;11.960;2023-09-08T02:28:45;95094.25;;;17.87;93.12
23363;BME280;11853;48.080;11.960;2023-09-08T02:31:10;95094.25;;;17.87;92.83
23363;BME280;11853;48.080;11.960;2023-09-08T02:33:37;95096.66;;;17.82;93.77
23363;BME280;11853;48.080;11.960;2023-09-08T02:36:04;95101.38;;;17.79;93.69
23363;BME280;11853;48.080;11.960;2023-09-08T02:38:32;95099.44;;;17.73;94.33
23363;BME280;11853;48.080;11.960;2023-09-08T02:40:57;95102.50;;;17.70;94.27
23363;BME280;11853;48.080;11.960;2023-09-08T02:43:23;95097.34;;;17.69;94.69
23363;BME280;11853;48.080;11.960;2023-09-08T02:45:49;95097.47;;;17.61;94.87
23363;BME280;11853;48.080;11.960;2023-09-08T02:48:15;95099.13;;;17.62;94.83
23363;BME280;11853;48.080;11.960;2023-09-08T02:50:43;95096.75;;;17.52;95.27
23363;BME280;11853;48.080;11.960;2023-09-08T02:53:12;95095.06;;;17.51;95.41
23363;BME280;11853;48.080;11.960;2023-09-08T02:55:38;95104.16;;;17.50;95.47
23363;BME280;11853;48.080;11.960;2023-09-08T02:58:03;95099.59;;;17.50;95.61
23363;BME280;11853;48.080;11.960;2023-09-08T03:00:29;95095.84;;;17.45;95.75
23363;BME280;11853;48.080;11.960;2023-09-08T03:02:55;95096.66;;;17.45;95.65
23363;BME280;11853;48.080;11.960;2023-09-08T03:05:21;95098.13;;;17.48;96.04
23363;BME280;11853;48.080;11.960;2023-09-08T03:07:49;95106.19;;;17.48;95.68
23363;BME280;11853;48.080;11.960;2023-09-08T03:10:15;95095.84;;;17.45;96.39
23363;BME280;11853;48.080;11.960;2023-09-08T03:12:44;95097.50;;;17.46;96.00
23363;BME280;11853;48.080;11.960;2023-09-08T03:15:10;95093.53;;;17.42;96.30
23363;BME280;11853;48.080;11.960;2023-09-08T03:17:36;95095.56;;;17.40;96.61
23363;BME280;11853;48.080;11.960;2023-09-08T03:20:02;95098.63;;;17.37;96.68
23363;BME280;11853;48.080;11.960;2023-09-08T03:22:30;95101.69;;;17.33;96.59
23363;BME280;11853;48.080;11.960;2023-09-08T03:24:55;95092.34;;;17.29;97.13
23363;BME280;11853;48.080;11.960;2023-09-08T03:27:21;95096.41;;;17.25;97.30
23363;BME280;11853;48.080;11.960;2023-09-08T03:29:47;95088.19;;;17.27;97.05
23363;BME280;11853;48.080;11.960;2023-09-08T03:32:13;95099.69;;;17.21;97.16
23363;BME280;11853;48.080;11.960;2023-09-08T03:34:38;95096.78;;;17.22;97.07
23363;BME280;11853;48.080;11.960;2023-09-08T03:37:05;95090.53;;;17.15;97.24
23363;BME280;11853;48.080;11.960;2023-09-08T03:39:31;95095.91;;;17.15;97.68
23363;BME280;11853;48.080;11.960;2023-09-08T03:41:56;95106.16;;;17.11;97.80
23363;BME280;11853;48.080;11.960;2023-09-08T03:44:22;95094.97;;;17.08;97.82
23363;BME280;11853;48.080;11.960;2023-09-08T03:46:48;95095.34;;;17.05;97.82
23363;BME280;11853;48.080;11.960;2023-09-08T03:49:14;95092.50;;;17.06;97.71
23363;BME280;11853;48.080;11.960;2023-09-08T03:51:40;95097.03;;;17.06;97.59
23363;BME280;11853;48.080;11.960;2023-09-08T03:54:05;95091.94;;;16.96;98.10
23363;BME280;11853;48.080;11.960;2023-09-08T03:56:31;95087.78;;;16.94;98.27
23363;BME280;11853;48.080;11.960;2023-09-08T03:58:57;95086.50;;;16.89;98.21
23363;BME280;11853;48.080;11.960;2023-09-08T04:01:23;95088.50;;;16.87;99.13
23363;BME280;11853;48.080;11.960;2023-09-08T04:03:48;95088.34;;;16.89;98.60
23363;BME280;11853;48.080;11.960;2023-09-08T04:06:14;95084.56;;;16.83;99.14
23363;BME280;11853;48.080;11.960;2023-09-08T04:08:52;95096.28;;;16.82;99.26
23363;BME280;11853;48.080;11.960;2023-09-08T04:11:36;95086.03;;;16.86;99.13
23363;BME280;11853;48.080;11.960;2023-09-08T04:14:01;95100.25;;;16.86;98.70
23363;BME280;11853;48.080;11.960;2023-09-08T04:16:28;95093.06;;;16.87;98.91
23363;BME280;11853;48.080;11.960;2023-09-08T04:18:54;95099.25;;;16.87;98.97
23363;BME280;11853;48.080;11.960;2023-09-08T04:21:20;95087.53;;;16.88;98.93
23363;BME280;11853;48.080;11.960;2023-09-08T04:23:46;95092.31;;;16.93;98.29
23363;BME280;11853;48.080;11.960;2023-09-08T04:26:12;95090.44;;;16.94;98.27
23363;BME280;11853;48.080;11.960;2023-09-08T04:28:38;95089.81;;;16.92;98.87
23363;BME280;11853;48.080;11.960;2023-09-08T04:31:04;95099.53;;;16.93;98.25
23363;BME280;11853;48.080;11.960;2023-09-08T04:33:30;95091.84;;;16.89;98.93
23363;BME280;11853;48.080;11.960;2023-09-08T04:35:56;95093.50;;;16.91;98.72
23363;BME280;11853;48.080;11.960;2023-09-08T04:38:22;95091.19;;;16.87;99.05
23363;BME280;11853;48.080;11.960;2023-09-08T04:40:48;95103.59;;;16.88;98.73
23363;BME280;11853;48.080;11.960;2023-09-08T04:43:14;95092.22;;;16.86;99.14
23363;BME280;11853;48.080;11.960;2023-09-08T04:45:40;95099.69;;;16.91;99.07
23363;BME280;11853;48.080;11.960;2023-09-08T04:48:06;95103.22;;;16.92;99.25
23363;BME280;11853;48.080;11.960;2023-09-08T04:50:32;95110.41;;;16.91;99.21
23363;BME280;11853;48.080;11.960;2023-09-08T04:52:58;95106.34;;;16.95;99.22
23363;BME280;11853;48.080;11.960;2023-09-08T04:55:24;95104.41;;;17.04;98.76
23363;BME280;11853;48.080;11.960;2023-09-08T04:57:50;95108.75;;;17.20;98.25
23363;BME280;11853;48.080;11.960;2023-09-08T05:00:16;95115.75;;;17.36;97.55
23363;BME280;11853;48.080;11.960;2023-09-08T05:02:42;95108.97;;;17.54;96.69
23363;BME280;11853;48.080;11.960;2023-09-08T05:05:08;95110.81;;;17.75;95.31
23363;BME280;11853;48.080;11.960;2023-09-08T05:07:33;95115.41;;;17.96;94.20
23363;BME280;11853;48.080;11.960;2023-09-08T05:10:00;95113.94;;;18.15;93.22
23363;BME280;11853;48.080;11.960;2023-09-08T05:12:26;95117.88;;;18.41;92.45
23363;BME280;11853;48.080;11.960;2023-09-08T05:14:52;95110.16;;;18.59;91.42
23363;BME280;11853;48.080;11.960;2023-09-08T05:17:23;95122.97;;;18.85;90.12
23363;BME280;11853;48.080;11.960;2023-09-08T05:19:49;95116.63;;;19.00;88.71
23363;BME280;11853;48.080;11.960;2023-09-08T05:22:15;95119.00;;;19.16;88.39
23363;BME280;11853;48.080;11.960;2023-09-08T05:24:43;95119.56;;;19.46;86.75
23363;BME280;11853;48.080;11.960;2023-09-08T05:27:09;95125.47;;;19.70;85.73
23363;BME280;11853;48.080;11.960;2023-09-08T05:29:35;95115.81;;;19.95;84.58
23363;BME280;11853;48.080;11.960;2023-09-08T05:32:04;95115.63;;;20.17;83.53
23363;BME280;11853;48.080;11.960;2023-09-08T05:34:35;95122.91;;;20.43;82.24
23363;BME280;11853;48.080;11.960;2023-09-08T05:37:02;95122.94;;;20.63;80.88
23363;BME280;11853;48.080;11.960;2023-09-08T05:39:30;95120.44;;;20.81;80.27
23363;BME280;11853;48.080;11.960;2023-09-08T05:41:56;95130.53;;;21.06;79.17
23363;BME280;11853;48.080;11.960;2023-09-08T05:44:22;95129.25;;;21.35;77.71
23363;BME280;11853;48.080;11.960;2023-09-08T05:46:50;95132.31;;;21.58;76.17
23363;BME280;11853;48.080;11.960;2023-09-08T05:49:16;95133.44;;;21.82;75.67
23363;BME280;11853;48.080;11.960;2023-09-08T05:51:44;95136.25;;;22.01;74.19
23363;BME280;11853;48.080;11.960;2023-09-08T05:54:10;95133.47;;;22.21;73.68
23363;BME280;11853;48.080;11.960;2023-09-08T05:56:37;95142.66;;;22.45;72.75
23363;BME280;11853;48.080;11.960;2023-09-08T05:59:12;95141.13;;;22.81;71.15
23363;BME280;11853;48.080;11.960;2023-09-08T06:01:41;95148.13;;;22.95;70.29
23363;BME280;11853;48.080;11.960;2023-09-08T06:04:06;95146.59;;;22.99;68.10
23363;BME280;11853;48.080;11.960;2023-09-08T06:06:32;95159.03;;;23.25;68.03
23363;BME280;11853;48.080;11.960;2023-09-08T06:08:58;95155.22;;;23.33;66.98
23363;BME280;11853;48.080;11.960;2023-09-08T06:11:25;95149.75;;;23.58;67.10
23363;BME280;11853;48.080;11.960;2023-09-08T06:13:51;95144.13;;;23.78;66.91
23363;BME280;11853;48.080;11.960;2023-09-08T06:16:21;95152.63;;;24.12;66.09
23363;BME280;11853;48.080;11.960;2023-09-08T06:18:49;95151.81;;;24.41;65.19
23363;BME280;11853;48.080;11.960;2023-09-08T06:21:15;95150.34;;;24.69;64.08
23363;BME280;11853;48.080;11.960;2023-09-08T06:23:41;95155.44;;;24.77;63.07
23363;BME280;11853;48.080;11.960;2023-09-08T06:26:07;95145.06;;;24.98;62.98
23363;BME280;11853;48.080;11.960;2023-09-08T06:28:33;95146.97;;;25.09;61.36
23363;BME280;11853;48.080;11.960;2023-09-08T06:30:59;95151.47;;;25.15;61.82
23363;BME280;11853;48.080;11.960;2023-09-08T06:33:24;95144.41;;;25.26;61.74
23363;BME280;11853;48.080;11.960;2023-09-08T06:35:51;95150.28;;;25.46;61.10
23363;BME280;11853;48.080;11.960;2023-09-08T06:38:19;95149.91;;;25.66;61.09
23363;BME280;11853;48.080;11.960;2023-09-08T06:40:45;95156.88;;;25.86;61.42
23363;BME280;11853;48.080;11.960;2023-09-08T06:43:10;95159.53;;;25.97;60.50
23363;BME280;11853;48.080;11.960;2023-09-08T06:45:39;95159.38;;;26.16;60.43
23363;BME280;11853;48.080;11.960;2023-09-08T06:48:07;95161.31;;;26.32;60.15
23363;BME280;11853;48.080;11.960;2023-09-08T06:50:33;95164.13;;;26.37;60.07
23363;BME280;11853;48.080;11.960;2023-09-08T06:52:59;95159.13;;;26.17;60.32
23363;BME280;11853;48.080;11.960;2023-09-08T06:55:26;95162.59;;;26.01;61.15
23363;BME280;11853;48.080;11.960;2023-09-08T06:57:51;95165.88;;;26.15;61.35
23363;BME280;11853;48.080;11.960;2023-09-08T07:00:17;95171.75;;;26.23;61.04
23363;BME280;11853;48.080;11.960;2023-09-08T07:02:43;95170.69;;;26.24;61.87
23363;BME280;11853;48.080;11.960;2023-09-08T07:05:08;95171.91;;;26.17;62.43
23363;BME280;11853;48.080;11.960;2023-09-08T07:07:35;95167.03;;;25.78;62.65
23363;BME280;11853;48.080;11.960;2023-09-08T07:10:03;95172.69;;;25.89;62.57
23363;BME280;11853;48.080;11.960;2023-09-08T07:12:31;95173.66;;;25.82;64.67
23363;BME280;11853;48.080;11.960;2023-09-08T07:14:57;95174.44;;;25.95;63.47
23363;BME280;11853;48.080;11.960;2023-09-08T07:17:23;95173.13;;;25.97;63.78
23363;BME280;11853;48.080;11.960;2023-09-08T07:19:49;95173.00;;;26.04;63.13
23363;BME280;11853;48.080;11.960;2023-09-08T07:22:15;95175.03;;;25.97;64.01
23363;BME280;11853;48.080;11.960;2023-09-08T07:24:41;95166.72;;;26.03;63.37
23363;BME280;11853;48.080;11.960;2023-09-08T07:27:07;95171.25;;;25.98;65.41
23363;BME280;11853;48.080;11.960;2023-09-08T07:29:33;95168.63;;;26.03;64.61
23363;BME280;11853;48.080;11.960;2023-09-08T07:31:59;95169.81;;;26.07;62.44
23363;BME280;11853;48.080;11.960;2023-09-08T07:34:25;95170.63;;;26.08;65.31
23363;BME280;11853;48.080;11.960;2023-09-08T07:36:51;95168.47;;;26.10;63.82
23363;BME280;11853;48.080;11.960;2023-09-08T07:39:16;95171.25;;;25.98;65.47
23363;BME280;11853;48.080;11.960;2023-09-08T07:41:42;95174.56;;;26.00;65.02
23363;BME280;11853;48.080;11.960;2023-09-08T07:44:08;95177.13;;;26.06;64.65
23363;BME280;11853;48.080;11.960;2023-09-08T07:46:33;95171.13;;;25.81;65.48
23363;BME280;11853;48.080;11.960;2023-09-08T07:48:59;95170.69;;;25.96;65.88
23363;BME280;11853;48.080;11.960;2023-09-08T07:51:26;95173.00;;;26.04;65.28
23363;BME280;11853;48.080;11.960;2023-09-08T07:53:55;95173.50;;;25.89;65.81
23363;BME280;11853;48.080;11.960;2023-09-08T07:56:21;95171.97;;;25.93;65.71
23363;BME280;11853;48.080;11.960;2023-09-08T07:58:47;95180.13;;;25.81;63.92
23363;BME280;11853;48.080;11.960;2023-09-08T08:01:14;95173.50;;;25.89;66.45
23363;BME280;11853;48.080;11.960;2023-09-08T08:03:40;95177.13;;;26.06;67.30
23363;BME280;11853;48.080;11.960;2023-09-08T08:06:06;95188.66;;;26.25;66.29
23363;BME280;11853;48.080;11.960;2023-09-08T08:08:33;95182.09;;;26.38;65.51
23363;BME280;11853;48.080;11.960;2023-09-08T08:11:15;95178.81;;;26.36;64.64
23363;BME280;11853;48.080;11.960;2023-09-08T08:13:43;95181.44;;;26.31;64.07
23363;BME280;11853;48.080;11.960;2023-09-08T08:16:09;95175.50;;;26.34;65.12
23363;BME280;11853;48.080;11.960;2023-09-08T08:18:35;95179.03;;;26.35;66.18
23363;BME280;11853;48.080;11.960;2023-09-08T08:21:00;95175.16;;;26.31;66.51
23363;BME280;11853;48.080;11.960;2023-09-08T08:23:31;95180.22;;;26.39;66.11
23363;BME280;11853;48.080;11.960;2023-09-08T08:25:57;95174.06;;;26.03;65.40
23363;BME280;11853;48.080;11.960;2023-09-08T08:28:23;95180.22;;;26.10;66.91
23363;BME280;11853;48.080;11.960;2023-09-08T08:30:50;95180.69;;;26.07;67.33
23363;BME280;11853;48.080;11.960;2023-09-08T08:33:16;95174.88;;;26.03;67.37
23363;BME280;11853;48.080;11.960;2023-09-08T08:35:48;95181.22;;;26.21;67.92
23363;BME280;11853;48.080;11.960;2023-09-08T08:38:15;95174.69;;;26.34;66.96
23363;BME280;11853;48.080;11.960;2023-09-08T08:40:41;95168.25;;;26.40;66.72
23363;BME280;11853;48.080;11.960;2023-09-08T08:43:07;95178.47;;;26.33;65.52
23363;BME280;11853;48.080;11.960;2023-09-08T08:45:34;95166.69;;;26.15;67.49
23363;BME280;11853;48.080;11.960;2023-09-08T08:48:01;95160.09;;;26.11;67.86
23363;BME280;11853;48.080;11.960;2023-09-08T08:50:29;95170.09;;;26.22;68.52
23363;BME280;11853;48.080;11.960;2023-09-08T08:52:56;95174.47;;;26.23;67.39
23363;BME280;11853;48.080;11.960;2023-09-08T08:55:23;95172.78;;;26.34;66.37
23363;BME280;11853;48.080;11.960;2023-09-08T08:57:50;95171.19;;;26.21;68.06
23363;BME280;11853;48.080;11.960;2023-09-08T09:00:16;95171.63;;;26.30;67.57
23363;BME280;11853;48.080;11.960;2023-09-08T09:02:44;95172.38;;;26.42;68.37
23363;BME280;11853;48.080;11.960;2023-09-08T09:05:14;95177.00;;;26.42;68.30
23363;BME280;11853;48.080;11.960;2023-09-08T09:07:43;95168.09;;;26.46;67.68
23363;BME280;11853;48.080;11.960;2023-09-08T09:10:09;95167.16;;;26.52;67.18
23363;BME280;11853;48.080;11.960;2023-09-08T09:12:37;95161.50;;;26.42;67.10
23363;BME280;11853;48.080;11.960;2023-09-08T09:15:04;95165.75;;;26.21;68.49
23363;BME280;11853;48.080;11.960;2023-09-08T09:17:33;95163.78;;;26.34;67.97
23363;BME280;11853;48.080;11.960;2023-09-08T09:20:18;95158.03;;;26.30;67.68
23363;BME280;11853;48.080;11.960;2023-09-08T09:22:48;95162.16;;;26.33;68.04
23363;BME280;11853;48.080;11.960;2023-09-08T09:25:21;95159.88;;;26.29;68.63
23363;BME280;11853;48.080;11.960;2023-09-08T09:27:55;95153.94;;;26.44;69.96
23363;BME280;11853;48.080;11.960;2023-09-08T09:30:22;95156.25;;;26.52;69.42
23363;BME280;11853;48.080;11.960;2023-09-08T09:32:58;95164.28;;;26.59;69.44
23363;BME280;11853;48.080;11.960;2023-09-08T09:35:42;95159.59;;;26.71;67.76
23363;BME280;11853;48.080;11.960;2023-09-08T09:38:08;95158.44;;;26.67;68.11
23363;BME280;11853;48.080;11.960;2023-09-08T09:40:35;95156.78;;;26.66;67.97
23363;BME280;11853;48.080;11.960;2023-09-08T09:43:00;95151.19;;;26.73;67.91
23363;BME280;11853;48.080;11.960;2023-09-08T09:45:26;95146.81;;;26.72;68.47
23363;BME280;11853;48.080;11.960;2023-09-08T09:47:52;95152.59;;;26.76;67.25
23363;BME280;11853;48.080;11.960;2023-09-08T09:50:30;95156.28;;;26.69;67.23
23363;BME280;11853;48.080;11.960;2023-09-08T09:52:57;95158.09;;;26.64;67.21
23363;BME280;11853;48.080;11.960;2023-09-08T09:55:25;95156.13;;;26.59;68.90
23363;BME280;11853;48.080;11.960;2023-09-08T09:57:56;95154.63;;;26.68;69.45
23363;BME280;11853;48.080;11.960;2023-09-08T10:00:26;95147.72;;;26.78;69.08
23363;BME280;11853;48.080;11.960;2023-09-08T10:02:53;95137.50;;;26.85;68.54
23363;BME280;11853;48.080;11.960;2023-09-08T10:05:19;95147.72;;;26.78;69.08
23363;BME280;11853;48.080;11.960;2023-09-08T10:07:47;95137.63;;;26.78;68.89
23363;BME280;11853;48.080;11.960;2023-09-08T10:10:14;95142.84;;;26.80;69.96
23363;BME280;11853;48.080;11.960;2023-09-08T10:12:45;95139.13;;;26.86;68.29
23363;BME280;11853;48.080;11.960;2023-09-08T10:15:12;95135.41;;;26.92;69.54
23363;BME280;11853;48.080;11.960;2023-09-08T10:17:44;95136.31;;;26.81;68.32
23363;BME280;11853;48.080;11.960;2023-09-08T10:20:10;95133.03;;;26.79;68.60
23363;BME280;11853;48.080;11.960;2023-09-08T10:22:42;95128.25;;;26.86;69.73
23363;BME280;11853;48.080;11.960;2023-09-08T10:25:09;95132.78;;;26.97;70.60
23363;BME280;11853;48.080;11.960;2023-09-08T10:27:36;95123.09;;;27.06;71.36
23363;BME280;11853;48.080;11.960;2023-09-08T10:30:04;95128.88;;;27.10;69.19
23363;BME280;11853;48.080;11.960;2023-09-08T10:32:33;95128.75;;;27.00;69.36
23363;BME280;11853;48.080;11.960;2023-09-08T10:35:01;95122.22;;;27.01;71.08
23363;BME280;11853;48.080;11.960;2023-09-08T10:37:28;95124.19;;;27.05;68.60
23363;BME280;11853;48.080;11.960;2023-09-08T10:39:55;95134.50;;;27.03;68.41
23363;BME280;11853;48.080;11.960;2023-09-08T10:42:25;95138.81;;;26.99;69.28
23363;BME280;11853;48.080;11.960;2023-09-08T10:44:59;95124.13;;;27.00;70.46
23363;BME280;11853;48.080;11.960;2023-09-08T10:47:31;95137.81;;;27.05;72.33
23363;BME280;11853;48.080;11.960;2023-09-08T10:49:59;95133.50;;;27.09;72.14
23363;BME280;11853;48.080;11.960;2023-09-08T10:52:25;95129.72;;;27.10;71.20
23363;BME280;11853;48.080;11.960;2023-09-08T10:54:53;95127.09;;;27.15;72.78
23363;BME280;11853;48.080;11.960;2023-09-08T10:57:23;95130.78;;;27.09;70.09
23363;BME280;11853;48.080;11.960;2023-09-08T10:59:57;95116.66;;;27.12;69.59
23363;BME280;11853;48.080;11.960;2023-09-08T11:02:38;95116.09;;;27.10;71.32
23363;BME280;11853;48.080;11.960;2023-09-08T11:05:08;95122.97;;;26.96;70.13
23363;BME280;11853;48.080;11.960;2023-09-08T11:07:37;95117.34;;;26.86;71.11
23363;BME280;11853;48.080;11.960;2023-09-08T11:10:04;95116.53;;;26.85;73.52
23363;BME280;11853;48.080;11.960;2023-09-08T11:12:31;95115.03;;;26.94;74.12
23363;BME280;11853;48.080;11.960;2023-09-08T11:14:57;95116.59;;;27.07;71.85
23363;BME280;11853;48.080;11.960;2023-09-08T11:17:30;95114.72;;;26.91;72.94
23363;BME280;11853;48.080;11.960;2023-09-08T11:19:56;95115.72;;;26.85;73.91
23363;BME280;11853;48.080;11.960;2023-09-08T11:22:25;95116.63;;;26.90;73.82
23363;BME280;11853;48.080;11.960;2023-09-08T11:24:56;95110.91;;;26.92;75.27
23363;BME280;11853;48.080;11.960;2023-09-08T11:27:27;95107.63;;;26.90;76.45
23363;BME280;11853;48.080;11.960;2023-09-08T11:29:53;95113.72;;;26.97;77.25
23363;BME280;11853;48.080;11.960;2023-09-08T11:32:19;95115.69;;;27.02;75.15
23363;BME280;11853;48.080;11.960;2023-09-08T11:34:44;95122.78;;;27.03;75.32
23363;BME280;11853;48.080;11.960;2023-09-08T11:37:14;95114.72;;;26.91;74.32
23363;BME280;11853;48.080;11.960;2023-09-08T11:39:42;95118.03;;;26.93;74.64
23363;BME280;11853;48.080;11.960;2023-09-08T11:42:10;95116.63;;;26.90;73.69
23363;BME280;11853;48.080;11.960;2023-09-08T11:44:36;95117.94;;;26.88;74.15
23363;BME280;11853;48.080;11.960;2023-09-08T11:47:03;95104.47;;;26.81;74.88
23363;BME280;11853;48.080;11.960;2023-09-08T11:49:36;95111.31;;;26.84;76.33
23363;BME280;11853;48.080;11.960;2023-09-08T11:52:03;95112.06;;;26.96;74.64
23363;BME280;11853;48.080;11.960;2023-09-08T11:54:33;95101.69;;;26.93;74.82
23363;BME280;11853;48.080;11.960;2023-09-08T11:57:01;95110.41;;;26.95;77.82
23363;BME280;11853;48.080;11.960;2023-09-08T11:59:28;95112.72;;;27.03;75.22
23363;BME280;11853;48.080;11.960;2023-09-08T12:01:55;95109.41;;;27.01;75.75
23363;BME280;11853;48.080;11.960;2023-09-08T12:04:21;95104.47;;;26.98;76.18
23363;BME280;11853;48.080;11.960;2023-09-08T12:06:52;95097.38;;;26.97;78.35
23363;BME280;11853;48.080;11.960;2023-09-08T12:09:20;95102.59;;;26.99;76.34
23363;BME280;11853;48.080;11.960;2023-09-08T12:11:46;95097.38;;;26.97;75.04
23363;BME280;11853;48.080;11.960;2023-09-08T12:14:13;95099.19;;;26.91;76.83
23363;BME280;11853;48.080;11.960;2023-09-08T12:16:40;95099.19;;;26.91;77.11
23363;BME280;11853;48.080;11.960;2023-09-08T12:19:07;95097.59;;;26.95;77.84
23363;BME280;11853;48.080;11.960;2023-09-08T12:21:54;95100.91;;;26.98;76.54
23363;BME280;11853;48.080;11.960;2023-09-08T12:24:49;95092.75;;;26.98;74.97
23363;BME280;11853;48.080;11.960;2023-09-08T12:27:16;95098.19;;;26.98;75.84
23363;BME280;11853;48.080;11.960;2023-09-08T12:29:53;95093.56;;;26.98;76.98
23363;BME280;11853;48.080;11.960;2023-09-08T12:32:20;95096.88;;;27.00;76.95
23363;BME280;11853;48.080;11.960;2023-09-08T12:34:46;95086.25;;;26.99;74.39
23363;BME280;11853;48.080;11.960;2023-09-08T12:37:11;95094.06;;;26.95;75.03
23363;BME280;11853;48.080;11.960;2023-09-08T12:39:38;95093.50;;;26.93;75.39
23363;BME280;11853;48.080;11.960;2023-09-08T12:42:04;95092.59;;;27.04;74.07
23363;BME280;11853;48.080;11.960;2023-09-08T12:44:30;95083.25;;;27.00;74.83
23363;BME280;11853;48.080;11.960;2023-09-08T12:46:56;95088.47;;;27.02;74.50
23363;BME280;11853;48.080;11.960;2023-09-08T12:49:22;95088.78;;;26.88;75.42
23363;BME280;11853;48.080;11.960;2023-09-08T12:51:48;95090.13;;;26.86;76.37
23363;BME280;11853;48.080;11.960;2023-09-08T12:54:13;95088.22;;;26.86;75.71
23363;BME280;11853;48.080;11.960;2023-09-08T12:56:39;95089.03;;;26.87;74.93